createdAt,value
2022-09-16T06:00:29.197Z,24.03
2022-09-16T06:39:24.479Z,25.22
2022-09-16T06:42:50.045Z,25.55
2022-09-16T06:49:27.721Z,25.84
2022-09-16T06:52:17.711Z,26.01
2022-09-16T06:55:24.830Z,26.52
2022-09-16T06:59:03.359Z,26.94
2022-09-16T07:05:43.636Z,28.18
2022-09-16T07:08:55.137Z,29.81
2022-09-16T07:12:07.988Z,31.43
2022-09-16T07:31:05.946Z,33.40
2022-09-16T07:34:23.939Z,33.00
2022-09-16T07:37:49.870Z,32.38
2022-09-16T07:41:12.997Z,31.80
2022-09-16T07:44:44.892Z,32.58
2022-09-16T07:47:55.510Z,31.75
2022-09-16T07:51:34.299Z,33.91
2022-09-16T07:55:16.570Z,33.56
2022-09-16T07:58:49.450Z,34.86
2022-09-16T08:01:31.601Z,33.45
2022-09-16T08:09:15.252Z,34.36
2022-09-16T08:34:33.393Z,39.49
2022-09-16T08:37:16.367Z,38.91
2022-09-16T08:44:25.512Z,39.23
2022-09-16T08:47:26.717Z,40.49
2022-09-16T08:50:09.396Z,40.28
2022-09-16T08:53:25.317Z,40.81
2022-09-16T08:55:53.847Z,39.24
2022-09-16T08:58:25.889Z,35.44
2022-09-16T09:01:03.491Z,39.44
2022-09-16T09:03:38.547Z,39.33
2022-09-16T09:06:31.635Z,35.58
2022-09-16T09:09:14.177Z,38.51
2022-09-16T09:11:53.532Z,39.97
2022-09-16T09:14:44.041Z,38.64
2022-09-16T09:17:21.659Z,38.21
2022-09-16T09:19:58.296Z,38.87
2022-09-16T09:22:55.084Z,39.06
2022-09-16T09:25:50.385Z,39.03
2022-09-16T09:28:40.836Z,37.52
2022-09-16T09:31:21.208Z,40.14
2022-09-16T09:34:26.853Z,39.36
2022-09-16T09:37:20.320Z,40.40
2022-09-16T09:40:08.420Z,39.16
2022-09-16T09:42:41.244Z,39.87
2022-09-16T09:45:31.790Z,39.93
2022-09-16T09:48:06.379Z,40.01
2022-09-16T09:50:42.902Z,39.10
2022-09-16T09:53:35.870Z,37.89
2022-09-16T09:56:25.518Z,38.15
2022-09-16T09:59:22.369Z,36.58
2022-09-16T10:02:03.363Z,36.37
2022-09-16T10:04:37.636Z,36.07
2022-09-16T10:07:06.335Z,34.46
2022-09-16T10:09:36.242Z,31.87
2022-09-16T10:12:07.938Z,32.65
2022-09-16T10:14:38.023Z,33.00
2022-09-16T10:17:17.997Z,33.43
2022-09-16T10:19:57.790Z,35.10
2022-09-16T10:22:29.969Z,33.37
2022-09-16T10:25:00.082Z,34.40
2022-09-16T10:27:38.207Z,35.84
2022-09-16T10:30:18.153Z,34.20
2022-09-16T10:32:59.043Z,34.69
2022-09-16T10:35:38.154Z,33.01
2022-09-16T10:38:13.425Z,34.68
2022-09-16T10:40:52.634Z,34.11
2022-09-16T10:43:20.406Z,33.94
2022-09-16T10:45:50.778Z,35.41
2022-09-16T10:48:24.809Z,34.85
2022-09-16T10:51:04.073Z,34.76
2022-09-16T10:53:39.169Z,34.53
2022-09-16T10:56:20.796Z,33.18
2022-09-16T10:58:51.513Z,34.05
2022-09-16T11:01:51.567Z,33.13
2022-09-16T11:04:40.229Z,32.26
2022-09-16T11:07:07.991Z,32.44
2022-09-16T11:09:54.095Z,32.85
2022-09-16T11:12:41.310Z,33.51
2022-09-16T11:15:14.710Z,33.69
2022-09-16T11:17:57.974Z,34.22
2022-09-16T11:20:31.234Z,33.82
2022-09-16T11:23:42.370Z,33.49
2022-09-16T11:26:35.579Z,31.95
2022-09-16T11:29:28.626Z,33.10
2022-09-16T11:32:21.117Z,34.14
2022-09-16T11:35:04.962Z,33.42
2022-09-16T11:37:33.997Z,31.43
2022-09-16T11:40:07.320Z,31.56
2022-09-16T11:42:52.731Z,31.85
2022-09-16T11:45:47.833Z,33.05
2022-09-16T11:48:36.117Z,32.66
2022-09-16T11:51:23.086Z,32.86
2022-09-16T11:54:25.843Z,33.81
2022-09-16T11:58:04.676Z,32.75
2022-09-16T12:01:07.307Z,33.19
2022-09-16T12:04:37.699Z,32.93
2022-09-16T12:09:57.829Z,34.19
2022-09-16T12:12:32.571Z,34.02
2022-09-16T12:15:26.608Z,34.19
2022-09-16T12:18:13.535Z,33.92
2022-09-16T12:20:55.124Z,34.09
2022-09-16T12:23:31.627Z,33.61
2022-09-16T12:26:10.085Z,34.26
2022-09-16T12:28:59.511Z,32.62
2022-09-16T12:31:47.067Z,33.46
2022-09-16T12:34:20.868Z,34.16
2022-09-16T12:36:59.599Z,34.10
2022-09-16T12:39:27.229Z,33.53
2022-09-16T12:42:06.783Z,33.74
2022-09-16T12:45:08.051Z,32.83
2022-09-16T12:47:55.249Z,32.78
2022-09-16T12:50:59.655Z,33.78
2022-09-16T12:53:46.590Z,33.19
2022-09-16T12:56:22.971Z,32.81
2022-09-16T12:59:13.783Z,33.12
2022-09-16T13:01:55.558Z,33.41
2022-09-16T13:04:43.119Z,33.84
2022-09-16T13:07:28.323Z,33.93
2022-09-16T13:10:07.753Z,34.13
2022-09-16T13:12:43.085Z,33.69
2022-09-16T13:15:25.584Z,33.40
2022-09-16T13:17:53.394Z,33.15
2022-09-16T13:20:34.122Z,32.66
2022-09-16T13:23:19.355Z,33.07
2022-09-16T13:26:07.755Z,32.89
2022-09-16T13:28:39.681Z,32.98
2022-09-16T13:31:13.378Z,32.89
2022-09-16T13:33:46.055Z,32.26
2022-09-16T13:36:31.452Z,32.68
2022-09-16T13:39:12.897Z,33.14
2022-09-16T13:41:49.923Z,32.85
2022-09-16T13:44:39.246Z,32.76
2022-09-16T13:47:09.902Z,33.34
2022-09-16T13:49:41.784Z,33.74
2022-09-16T13:52:16.634Z,32.90
2022-09-16T13:57:48.600Z,33.45
2022-09-16T14:00:32.446Z,33.91
2022-09-16T14:03:18.068Z,33.62
2022-09-16T14:06:09.294Z,33.75
2022-09-16T14:09:01.352Z,33.85
2022-09-16T14:12:04.223Z,33.15
2022-09-16T14:14:50.079Z,33.42
2022-09-16T14:17:23.203Z,33.55
2022-09-16T14:19:56.470Z,32.98
2022-09-16T14:22:27.445Z,33.30
2022-09-16T14:25:05.968Z,33.27
2022-09-16T14:27:40.608Z,33.50
2022-09-16T14:30:19.279Z,33.27
2022-09-16T14:32:48.728Z,33.39
2022-09-16T14:35:23.052Z,32.81
2022-09-16T14:38:01.999Z,32.91
2022-09-16T14:40:31.952Z,32.67
2022-09-16T14:43:07.341Z,32.88
2022-09-16T14:45:37.364Z,33.17
2022-09-16T14:48:10.096Z,33.31
2022-09-16T14:50:41.159Z,33.24
2022-09-16T14:53:35.291Z,33.18
2022-09-16T14:56:06.423Z,33.26
2022-09-16T14:58:34.921Z,32.43
2022-09-16T15:01:10.601Z,32.73
2022-09-16T15:03:53.491Z,32.56
2022-09-16T15:06:27.433Z,32.45
2022-09-16T15:09:39.776Z,32.32
2022-09-16T15:12:25.401Z,32.23
2022-09-16T15:14:53.107Z,32.28
2022-09-16T15:17:24.015Z,32.41
2022-09-16T15:19:55.860Z,32.14
2022-09-16T15:22:23.862Z,32.42
2022-09-16T15:24:56.426Z,32.47
2022-09-16T15:27:29.334Z,31.83
2022-09-16T15:29:59.994Z,32.02
2022-09-16T15:32:31.709Z,31.98
2022-09-16T15:35:17.943Z,32.17
2022-09-16T15:37:46.004Z,31.81
2022-09-16T15:40:25.618Z,32.16
2022-09-16T15:43:11.704Z,32.29
2022-09-16T15:45:40.017Z,32.26
2022-09-16T15:48:20.733Z,32.28
2022-09-16T15:51:00.552Z,32.09
2022-09-16T15:53:31.713Z,32.01
2022-09-16T15:56:30.600Z,31.49
2022-09-16T15:59:02.700Z,31.26
2022-09-16T16:01:53.111Z,30.94
2022-09-16T16:04:30.925Z,30.79
2022-09-16T16:07:02.436Z,30.93
2022-09-16T16:10:10.354Z,30.17
2022-09-16T16:12:37.758Z,30.31
2022-09-16T16:15:10.156Z,30.00
2022-09-16T16:17:37.895Z,29.83
2022-09-16T16:20:08.131Z,30.16
2022-09-16T16:22:35.941Z,29.70
2022-09-16T16:25:09.876Z,29.75
2022-09-16T16:27:37.910Z,30.48
2022-09-16T16:30:09.143Z,30.42
2022-09-16T16:32:38.619Z,30.16
2022-09-16T16:35:08.321Z,29.08
2022-09-16T16:37:51.991Z,29.67
2022-09-16T16:40:19.888Z,28.85
2022-09-16T16:42:47.335Z,28.43
2022-09-16T16:45:14.857Z,28.25
2022-09-16T16:47:42.959Z,28.55
2022-09-16T16:50:11.214Z,27.70
2022-09-16T16:52:39.372Z,27.63
2022-09-16T16:55:07.599Z,27.85
2022-09-16T16:57:37.561Z,28.09
2022-09-16T17:00:06.581Z,27.94
2022-09-16T17:02:34.394Z,28.27
2022-09-16T17:05:02.726Z,28.33
2022-09-16T17:07:32.788Z,28.62
2022-09-16T17:10:00.326Z,28.44
2022-09-16T17:12:30.878Z,28.80
2022-09-16T17:14:58.556Z,27.88
2022-09-16T17:17:30.675Z,28.99
2022-09-16T17:19:59.543Z,28.34
2022-09-16T17:22:27.047Z,27.93
2022-09-16T17:24:54.650Z,28.15
2022-09-16T17:27:24.708Z,27.83
2022-09-16T17:29:52.287Z,27.65
2022-09-16T17:32:19.950Z,28.02
2022-09-16T17:34:48.174Z,27.93
2022-09-16T17:37:20.027Z,27.99
2022-09-16T17:39:48.636Z,28.38
2022-09-16T17:42:16.319Z,27.75
2022-09-16T17:44:43.824Z,28.49
2022-09-16T17:47:11.249Z,27.95
2022-09-16T17:49:38.854Z,28.17
2022-09-16T17:52:06.352Z,28.07
2022-09-16T17:54:34.004Z,27.65
2022-09-16T17:57:01.472Z,27.82
2022-09-16T17:59:29.139Z,27.68
2022-09-16T18:01:56.758Z,27.09
2022-09-16T18:04:26.884Z,27.38
2022-09-16T18:06:54.315Z,27.24
2022-09-16T18:09:21.840Z,27.30
2022-09-16T18:11:49.445Z,27.66
2022-09-16T18:14:21.284Z,27.39
2022-09-16T18:16:50.849Z,27.62
2022-09-16T18:19:18.384Z,27.50
2022-09-16T18:21:46.089Z,27.87
2022-09-16T18:24:13.714Z,27.68
2022-09-16T18:26:42.367Z,27.87
2022-09-16T18:29:12.164Z,27.85
2022-09-16T18:31:42.089Z,27.47
2022-09-16T18:34:10.013Z,27.31
2022-09-16T18:36:40.428Z,27.42
2022-09-16T18:39:12.563Z,27.72
2022-09-16T18:41:42.009Z,28.28
2022-09-16T18:44:16.011Z,28.23
2022-09-16T18:46:44.139Z,28.18
2022-09-16T18:49:16.765Z,28.05
2022-09-16T18:51:50.795Z,26.99
2022-09-16T18:54:30.538Z,26.85
2022-09-16T18:57:00.198Z,27.07
2022-09-16T18:59:32.828Z,27.05
2022-09-16T19:02:16.019Z,26.50
2022-09-16T19:04:43.709Z,26.76
2022-09-16T19:07:17.307Z,26.62
2022-09-16T19:09:46.454Z,26.00
2022-09-16T19:12:13.837Z,26.61
2022-09-16T19:14:41.906Z,25.97
2022-09-16T19:17:09.776Z,25.97
2022-09-16T19:19:37.383Z,26.17
2022-09-16T19:22:06.171Z,25.87
2022-09-16T19:24:34.203Z,26.12
2022-09-16T19:27:01.768Z,26.02
2022-09-16T19:29:29.393Z,26.22
2022-09-16T19:31:57.459Z,26.00
2022-09-16T19:34:25.159Z,26.18
2022-09-16T19:36:56.106Z,26.51
2022-09-16T19:39:24.033Z,26.54
2022-09-16T19:41:51.502Z,25.89
2022-09-16T19:44:19.328Z,26.08
2022-09-16T19:46:49.333Z,26.10
2022-09-16T19:49:20.136Z,25.91
2022-09-16T19:51:49.558Z,26.03
2022-09-16T19:54:17.978Z,25.66
2022-09-16T19:56:50.078Z,26.13
2022-09-16T19:59:20.067Z,25.69
2022-09-16T20:01:48.053Z,26.12
2022-09-16T20:04:19.926Z,26.27
2022-09-16T20:06:48.145Z,26.22
2022-09-16T20:09:17.067Z,25.76
2022-09-16T20:11:46.481Z,25.76
2022-09-16T20:14:21.516Z,25.60
2022-09-16T20:16:50.903Z,25.86
2022-09-16T20:19:20.149Z,25.63
2022-09-16T20:21:47.721Z,25.26
2022-09-16T20:24:18.524Z,25.18
2022-09-16T20:26:51.473Z,25.39
2022-09-16T20:29:41.024Z,25.61
2022-09-16T20:35:38.527Z,25.17
2022-09-16T20:38:07.715Z,24.72
2022-09-16T20:40:35.820Z,24.62
2022-09-16T20:43:06.722Z,25.02
2022-09-16T20:45:36.891Z,24.49
2022-09-16T20:51:34.551Z,24.23
2022-09-16T20:54:08.627Z,23.88
2022-09-16T20:56:39.685Z,24.45
2022-09-16T20:59:10.773Z,24.69
2022-09-16T21:01:44.284Z,24.64
2022-09-16T21:04:15.524Z,23.95
2022-09-16T21:06:43.956Z,24.43
2022-09-16T21:09:13.843Z,24.09
2022-09-16T21:11:45.120Z,23.93
2022-09-16T21:14:16.932Z,24.38
2022-09-16T21:16:46.099Z,24.26
2022-09-16T21:19:14.707Z,23.87
2022-09-16T21:21:44.622Z,23.74
2022-09-16T21:24:13.234Z,23.72
2022-09-16T21:26:44.631Z,23.54
2022-09-16T21:29:15.848Z,23.49
2022-09-16T21:31:51.871Z,23.63
2022-09-16T21:34:28.957Z,23.25
2022-09-16T21:36:59.716Z,23.76
2022-09-16T21:39:28.147Z,23.66
2022-09-16T21:41:58.041Z,23.45
2022-09-16T21:44:29.682Z,23.71
2022-09-16T21:46:57.174Z,24.15
2022-09-16T21:49:25.757Z,23.40
2022-09-16T21:51:55.266Z,23.42
2022-09-16T21:54:24.147Z,23.68
2022-09-16T21:56:52.171Z,23.75
2022-09-16T21:59:20.419Z,24.17
2022-09-16T22:01:50.337Z,23.81
2022-09-16T22:04:20.665Z,23.80
2022-09-16T22:06:49.421Z,23.81
2022-09-16T22:09:17.634Z,24.20
2022-09-16T22:11:45.901Z,23.58
2022-09-16T22:14:15.919Z,23.59
2022-09-16T22:16:44.265Z,23.34
2022-09-16T22:19:17.659Z,23.20
2022-09-16T22:21:48.180Z,22.97
2022-09-16T22:24:17.499Z,23.04
2022-09-16T22:26:45.244Z,22.95
2022-09-16T22:29:13.592Z,23.55
2022-09-16T22:31:41.965Z,22.77
2022-09-16T22:34:10.206Z,23.07
2022-09-16T22:36:38.930Z,22.84
2022-09-16T22:39:16.272Z,22.77
2022-09-16T22:41:46.238Z,22.83
2022-09-16T22:44:14.266Z,22.71
2022-09-16T22:46:45.829Z,22.93
2022-09-16T22:49:14.690Z,22.87
2022-09-16T22:51:43.303Z,23.30
2022-09-16T22:54:13.361Z,22.67
2022-09-16T22:56:43.770Z,22.54
2022-09-16T22:59:20.873Z,22.62
2022-09-16T23:01:49.627Z,22.35
2022-09-16T23:04:17.884Z,22.15
2022-09-16T23:06:48.562Z,22.07
2022-09-16T23:09:18.916Z,22.07
2022-09-16T23:11:46.495Z,22.29
2022-09-16T23:14:24.768Z,22.34
2022-09-16T23:16:54.338Z,22.70
2022-09-16T23:19:22.575Z,22.28
2022-09-16T23:21:50.294Z,22.41
2022-09-16T23:24:30.281Z,22.48
2022-09-16T23:26:57.814Z,22.72
2022-09-16T23:29:25.819Z,22.14
2022-09-16T23:31:53.582Z,22.87
2022-09-16T23:34:22.153Z,22.14
2022-09-16T23:36:50.075Z,21.83
2022-09-16T23:39:18.568Z,21.27
2022-09-16T23:41:46.574Z,21.11
2022-09-16T23:44:15.101Z,21.46
2022-09-16T23:46:43.407Z,21.61
2022-09-16T23:49:11.549Z,21.74
2022-09-16T23:51:39.567Z,21.89
2022-09-16T23:54:10.110Z,21.70
2022-09-16T23:56:37.738Z,21.58
2022-09-16T23:59:07.389Z,21.42
